sensor_id;sensor_type;location;lat;lon;timestamp;P1;durP1;ratioP1;P2;durP2;ratioP2
62861;SDS011;48953;53.110;5.592;2023-06-10T00:00:24;12.70;;;6.65;;
62861;SDS011;48953;53.110;5.592;2023-06-10T00:02:50;14.93;;;6.85;;
62861;SDS011;48953;53.110;5.592;2023-06-10T00:05:17;11.90;;;6.65;;
62861;SDS011;48953;53.110;5.592;2023-06-10T00:07:46;13.65;;;6.68;;
62861;SDS011;48953;53.110;5.592;2023-06-10T00:10:13;13.43;;;6.95;;
62861;SDS011;48953;53.110;5.592;2023-06-10T00:12:39;11.20;;;5.82;;
62861;SDS011;48953;53.110;5.592;2023-06-10T00:15:05;13.40;;;7.00;;
62861;SDS011;48953;53.110;5.592;2023-06-10T00:17:31;9.65;;;6.20;;
62861;SDS011;48953;53.110;5.592;2023-06-10T00:19:57;13.80;;;6.72;;
62861;SDS011;48953;53.110;5.592;2023-06-10T00:22:24;9.85;;;6.13;;
62861;SDS011;48953;53.110;5.592;2023-06-10T00:24:54;12.65;;;6.97;;
62861;SDS011;48953;53.110;5.592;2023-06-10T00:27:21;12.85;;;6.78;;
62861;SDS011;48953;53.110;5.592;2023-06-10T00:29:47;14.52;;;6.40;;
62861;SDS011;48953;53.110;5.592;2023-06-10T00:32:14;10.38;;;5.68;;
62861;SDS011;48953;53.110;5.592;2023-06-10T00:34:40;10.52;;;6.13;;
62861;SDS011;48953;53.110;5.592;2023-06-10T00:37:06;10.95;;;6.55;;
62861;SDS011;48953;53.110;5.592;2023-06-10T00:39:32;12.73;;;6.95;;
62861;SDS011;48953;53.110;5.592;2023-06-10T00:41:58;10.30;;;6.22;;
62861;SDS011;48953;53.110;5.592;2023-06-10T00:44:24;11.43;;;7.32;;
62861;SDS011;48953;53.110;5.592;2023-06-10T00:46:50;13.95;;;7.07;;
62861;SDS011;48953;53.110;5.592;2023-06-10T00:49:18;10.98;;;6.10;;
62861;SDS011;48953;53.110;5.592;2023-06-10T00:51:44;12.13;;;7.28;;
62861;SDS011;48953;53.110;5.592;2023-06-10T00:54:10;11.82;;;6.70;;
62861;SDS011;48953;53.110;5.592;2023-06-10T00:56:38;12.93;;;6.82;;
62861;SDS011;48953;53.110;5.592;2023-06-10T00:59:04;16.83;;;7.15;;
62861;SDS011;48953;53.110;5.592;2023-06-10T01:01:30;13.02;;;6.68;;
62861;SDS011;48953;53.110;5.592;2023-06-10T01:03:57;11.93;;;6.70;;
62861;SDS011;48953;53.110;5.592;2023-06-10T01:08:55;11.50;;;7.22;;
62861;SDS011;48953;53.110;5.592;2023-06-10T01:11:25;11.18;;;6.68;;
62861;SDS011;48953;53.110;5.592;2023-06-10T01:13:54;11.68;;;5.95;;
62861;SDS011;48953;53.110;5.592;2023-06-10T01:16:21;11.50;;;6.97;;
62861;SDS011;48953;53.110;5.592;2023-06-10T01:18:47;12.70;;;6.63;;
62861;SDS011;48953;53.110;5.592;2023-06-10T01:21:22;12.75;;;6.97;;
62861;SDS011;48953;53.110;5.592;2023-06-10T01:23:49;16.15;;;7.40;;
62861;SDS011;48953;53.110;5.592;2023-06-10T01:26:15;10.40;;;6.20;;
62861;SDS011;48953;53.110;5.592;2023-06-10T01:31:20;17.00;;;6.95;;
62861;SDS011;48953;53.110;5.592;2023-06-10T01:33:51;12.10;;;6.70;;
62861;SDS011;48953;53.110;5.592;2023-06-10T01:36:17;12.48;;;6.47;;
62861;SDS011;48953;53.110;5.592;2023-06-10T01:38:44;11.73;;;7.10;;
62861;SDS011;48953;53.110;5.592;2023-06-10T01:41:11;11.73;;;7.00;;
62861;SDS011;48953;53.110;5.592;2023-06-10T01:43:38;12.40;;;6.00;;
62861;SDS011;48953;53.110;5.592;2023-06-10T01:46:04;10.68;;;6.30;;
62861;SDS011;48953;53.110;5.592;2023-06-10T01:48:31;11.30;;;6.57;;
62861;SDS011;48953;53.110;5.592;2023-06-10T01:50:57;14.05;;;6.70;;
62861;SDS011;48953;53.110;5.592;2023-06-10T01:53:23;11.98;;;7.50;;
62861;SDS011;48953;53.110;5.592;2023-06-10T01:55:50;11.57;;;6.30;;
62861;SDS011;48953;53.110;5.592;2023-06-10T01:58:16;13.07;;;6.90;;
62861;SDS011;48953;53.110;5.592;2023-06-10T02:00:42;12.38;;;6.47;;
62861;SDS011;48953;53.110;5.592;2023-06-10T02:03:07;11.32;;;6.47;;
62861;SDS011;48953;53.110;5.592;2023-06-10T02:05:33;13.00;;;6.53;;
62861;SDS011;48953;53.110;5.592;2023-06-10T02:07:59;16.40;;;7.40;;
62861;SDS011;48953;53.110;5.592;2023-06-10T02:10:26;13.45;;;7.43;;
62861;SDS011;48953;53.110;5.592;2023-06-10T02:12:52;12.32;;;6.80;;
62861;SDS011;48953;53.110;5.592;2023-06-10T02:15:18;11.38;;;7.00;;
62861;SDS011;48953;53.110;5.592;2023-06-10T02:17:44;11.52;;;6.78;;
62861;SDS011;48953;53.110;5.592;2023-06-10T02:20:10;12.93;;;6.55;;
62861;SDS011;48953;53.110;5.592;2023-06-10T02:22:37;12.40;;;6.93;;
62861;SDS011;48953;53.110;5.592;2023-06-10T02:25:03;11.68;;;6.88;;
62861;SDS011;48953;53.110;5.592;2023-06-10T02:27:30;11.13;;;6.13;;
62861;SDS011;48953;53.110;5.592;2023-06-10T02:29:57;13.35;;;7.15;;
62861;SDS011;48953;53.110;5.592;2023-06-10T02:32:23;11.20;;;6.63;;
62861;SDS011;48953;53.110;5.592;2023-06-10T02:34:50;9.32;;;6.63;;
62861;SDS011;48953;53.110;5.592;2023-06-10T02:37:16;10.15;;;6.68;;
62861;SDS011;48953;53.110;5.592;2023-06-10T02:39:42;11.10;;;6.55;;
62861;SDS011;48953;53.110;5.592;2023-06-10T02:42:08;11.65;;;7.07;;
62861;SDS011;48953;53.110;5.592;2023-06-10T02:44:35;10.88;;;6.28;;
62861;SDS011;48953;53.110;5.592;2023-06-10T02:47:01;11.38;;;7.28;;
62861;SDS011;48953;53.110;5.592;2023-06-10T02:49:27;11.65;;;6.70;;
62861;SDS011;48953;53.110;5.592;2023-06-10T02:51:53;11.18;;;6.85;;
62861;SDS011;48953;53.110;5.592;2023-06-10T02:54:20;12.48;;;7.38;;
62861;SDS011;48953;53.110;5.592;2023-06-10T02:56:46;13.23;;;7.50;;
62861;SDS011;48953;53.110;5.592;2023-06-10T02:59:13;13.07;;;7.53;;
62861;SDS011;48953;53.110;5.592;2023-06-10T03:01:39;10.30;;;6.97;;
62861;SDS011;48953;53.110;5.592;2023-06-10T03:04:05;12.68;;;6.57;;
62861;SDS011;48953;53.110;5.592;2023-06-10T03:06:32;14.43;;;7.22;;
62861;SDS011;48953;53.110;5.592;2023-06-10T03:09:01;12.65;;;8.02;;
62861;SDS011;48953;53.110;5.592;2023-06-10T03:11:29;11.95;;;7.50;;
62861;SDS011;48953;53.110;5.592;2023-06-10T03:13:56;12.77;;;7.35;;
62861;SDS011;48953;53.110;5.592;2023-06-10T03:16:22;13.82;;;7.13;;
62861;SDS011;48953;53.110;5.592;2023-06-10T03:18:50;11.98;;;7.05;;
62861;SDS011;48953;53.110;5.592;2023-06-10T03:21:16;13.57;;;6.72;;
62861;SDS011;48953;53.110;5.592;2023-06-10T03:23:42;10.80;;;7.20;;
62861;SDS011;48953;53.110;5.592;2023-06-10T03:26:08;10.98;;;6.25;;
62861;SDS011;48953;53.110;5.592;2023-06-10T03:28:35;11.90;;;6.60;;
62861;SDS011;48953;53.110;5.592;2023-06-10T03:31:01;11.40;;;6.78;;
62861;SDS011;48953;53.110;5.592;2023-06-10T03:33:27;9.98;;;6.18;;
62861;SDS011;48953;53.110;5.592;2023-06-10T03:35:53;11.45;;;6.82;;
62861;SDS011;48953;53.110;5.592;2023-06-10T03:38:19;11.82;;;6.68;;
62861;SDS011;48953;53.110;5.592;2023-06-10T03:40:45;12.75;;;6.72;;
62861;SDS011;48953;53.110;5.592;2023-06-10T03:43:11;12.27;;;6.75;;
62861;SDS011;48953;53.110;5.592;2023-06-10T03:45:37;11.65;;;6.32;;
62861;SDS011;48953;53.110;5.592;2023-06-10T03:48:03;8.95;;;6.05;;
62861;SDS011;48953;53.110;5.592;2023-06-10T03:50:29;14.45;;;6.95;;
62861;SDS011;48953;53.110;5.592;2023-06-10T03:52:55;9.48;;;6.30;;
62861;SDS011;48953;53.110;5.592;2023-06-10T03:55:21;10.18;;;6.45;;
62861;SDS011;48953;53.110;5.592;2023-06-10T03:57:49;15.38;;;7.22;;
62861;SDS011;48953;53.110;5.592;2023-06-10T04:00:15;11.52;;;6.75;;
62861;SDS011;48953;53.110;5.592;2023-06-10T04:02:42;12.57;;;6.45;;
62861;SDS011;48953;53.110;5.592;2023-06-10T04:05:16;12.73;;;6.47;;
62861;SDS011;48953;53.110;5.592;2023-06-10T04:07:43;12.02;;;6.30;;
62861;SDS011;48953;53.110;5.592;2023-06-10T04:10:09;12.52;;;6.18;;
62861;SDS011;48953;53.110;5.592;2023-06-10T04:12:35;9.13;;;5.50;;
62861;SDS011;48953;53.110;5.592;2023-06-10T04:15:02;10.65;;;6.22;;
62861;SDS011;48953;53.110;5.592;2023-06-10T04:17:28;9.15;;;6.18;;
62861;SDS011;48953;53.110;5.592;2023-06-10T04:19:54;11.75;;;5.93;;
62861;SDS011;48953;53.110;5.592;2023-06-10T04:22:21;13.80;;;6.53;;
62861;SDS011;48953;53.110;5.592;2023-06-10T04:24:47;11.07;;;5.68;;
62861;SDS011;48953;53.110;5.592;2023-06-10T04:27:13;9.18;;;5.80;;
62861;SDS011;48953;53.110;5.592;2023-06-10T04:29:39;8.70;;;5.75;;
62861;SDS011;48953;53.110;5.592;2023-06-10T04:32:06;9.40;;;5.50;;
62861;SDS011;48953;53.110;5.592;2023-06-10T04:34:33;8.27;;;5.15;;
62861;SDS011;48953;53.110;5.592;2023-06-10T04:36:59;8.68;;;5.47;;
62861;SDS011;48953;53.110;5.592;2023-06-10T04:39:25;10.02;;;5.32;;
62861;SDS011;48953;53.110;5.592;2023-06-10T04:41:51;9.50;;;5.30;;
62861;SDS011;48953;53.110;5.592;2023-06-10T04:44:17;8.18;;;5.22;;
62861;SDS011;48953;53.110;5.592;2023-06-10T04:46:43;6.93;;;5.40;;
62861;SDS011;48953;53.110;5.592;2023-06-10T04:49:10;7.85;;;4.90;;
62861;SDS011;48953;53.110;5.592;2023-06-10T04:51:39;8.18;;;5.07;;
62861;SDS011;48953;53.110;5.592;2023-06-10T04:54:05;7.45;;;5.15;;
62861;SDS011;48953;53.110;5.592;2023-06-10T04:56:31;8.15;;;5.38;;
62861;SDS011;48953;53.110;5.592;2023-06-10T04:58:57;9.93;;;5.28;;
62861;SDS011;48953;53.110;5.592;2023-06-10T05:01:23;9.57;;;5.40;;
62861;SDS011;48953;53.110;5.592;2023-06-10T05:03:49;10.55;;;5.10;;
62861;SDS011;48953;53.110;5.592;2023-06-10T05:06:15;8.07;;;5.40;;
62861;SDS011;48953;53.110;5.592;2023-06-10T05:08:42;8.45;;;5.38;;
62861;SDS011;48953;53.110;5.592;2023-06-10T05:11:08;6.38;;;4.47;;
62861;SDS011;48953;53.110;5.592;2023-06-10T05:13:34;10.23;;;4.78;;
62861;SDS011;48953;53.110;5.592;2023-06-10T05:16:00;8.38;;;4.72;;
62861;SDS011;48953;53.110;5.592;2023-06-10T05:18:26;8.90;;;4.55;;
62861;SDS011;48953;53.110;5.592;2023-06-10T05:20:52;7.75;;;4.40;;
62861;SDS011;48953;53.110;5.592;2023-06-10T05:23:21;8.02;;;5.00;;
62861;SDS011;48953;53.110;5.592;2023-06-10T05:25:47;9.07;;;4.80;;
62861;SDS011;48953;53.110;5.592;2023-06-10T05:28:13;7.38;;;5.20;;
62861;SDS011;48953;53.110;5.592;2023-06-10T05:30:39;5.55;;;4.45;;
62861;SDS011;48953;53.110;5.592;2023-06-10T05:33:05;8.23;;;4.60;;
62861;SDS011;48953;53.110;5.592;2023-06-10T05:35:37;7.85;;;5.03;;
62861;SDS011;48953;53.110;5.592;2023-06-10T05:38:04;8.15;;;5.13;;
62861;SDS011;48953;53.110;5.592;2023-06-10T05:40:30;8.45;;;4.63;;
62861;SDS011;48953;53.110;5.592;2023-06-10T05:42:56;7.32;;;4.70;;
62861;SDS011;48953;53.110;5.592;2023-06-10T05:45:21;8.70;;;4.75;;
62861;SDS011;48953;53.110;5.592;2023-06-10T05:47:47;8.70;;;5.32;;
62861;SDS011;48953;53.110;5.592;2023-06-10T05:50:13;8.63;;;5.25;;
62861;SDS011;48953;53.110;5.592;2023-06-10T05:52:39;7.53;;;4.38;;
62861;SDS011;48953;53.110;5.592;2023-06-10T05:55:06;7.68;;;4.80;;
62861;SDS011;48953;53.110;5.592;2023-06-10T05:57:32;11.15;;;4.93;;
62861;SDS011;48953;53.110;5.592;2023-06-10T05:59:58;6.95;;;4.40;;
62861;SDS011;48953;53.110;5.592;2023-06-10T06:02:24;6.88;;;4.30;;
62861;SDS011;48953;53.110;5.592;2023-06-10T06:04:50;8.85;;;4.70;;
62861;SDS011;48953;53.110;5.592;2023-06-10T06:07:16;6.22;;;4.07;;
62861;SDS011;48953;53.110;5.592;2023-06-10T06:09:45;7.95;;;4.45;;
62861;SDS011;48953;53.110;5.592;2023-06-10T06:12:11;7.40;;;4.43;;
62861;SDS011;48953;53.110;5.592;2023-06-10T06:14:37;7.88;;;4.53;;
62861;SDS011;48953;53.110;5.592;2023-06-10T06:17:06;10.32;;;4.65;;
62861;SDS011;48953;53.110;5.592;2023-06-10T06:19:33;8.73;;;4.78;;
62861;SDS011;48953;53.110;5.592;2023-06-10T06:21:59;7.97;;;4.57;;
62861;SDS011;48953;53.110;5.592;2023-06-10T06:24:25;7.82;;;4.75;;
62861;SDS011;48953;53.110;5.592;2023-06-10T06:26:51;7.50;;;5.10;;
62861;SDS011;48953;53.110;5.592;2023-06-10T06:29:17;6.28;;;4.20;;
62861;SDS011;48953;53.110;5.592;2023-06-10T06:31:43;7.07;;;4.97;;
62861;SDS011;48953;53.110;5.592;2023-06-10T06:34:09;6.70;;;4.30;;
62861;SDS011;48953;53.110;5.592;2023-06-10T06:36:35;8.60;;;4.57;;
62861;SDS011;48953;53.110;5.592;2023-06-10T06:39:01;6.82;;;4.90;;
62861;SDS011;48953;53.110;5.592;2023-06-10T06:41:34;8.05;;;4.45;;
62861;SDS011;48953;53.110;5.592;2023-06-10T06:44:06;8.50;;;4.80;;
62861;SDS011;48953;53.110;5.592;2023-06-10T06:46:32;7.13;;;4.65;;
62861;SDS011;48953;53.110;5.592;2023-06-10T06:48:58;6.28;;;4.40;;
62861;SDS011;48953;53.110;5.592;2023-06-10T06:51:24;6.15;;;4.20;;
62861;SDS011;48953;53.110;5.592;2023-06-10T06:53:50;8.38;;;4.70;;
62861;SDS011;48953;53.110;5.592;2023-06-10T06:56:19;7.47;;;4.68;;
62861;SDS011;48953;53.110;5.592;2023-06-10T06:58:46;6.40;;;3.90;;
62861;SDS011;48953;53.110;5.592;2023-06-10T07:01:12;5.97;;;4.43;;
62861;SDS011;48953;53.110;5.592;2023-06-10T07:03:38;7.05;;;4.32;;
62861;SDS011;48953;53.110;5.592;2023-06-10T07:06:04;6.57;;;4.07;;
62861;SDS011;48953;53.110;5.592;2023-06-10T07:08:30;7.07;;;4.35;;
62861;SDS011;48953;53.110;5.592;2023-06-10T07:10:56;5.90;;;4.22;;
62861;SDS011;48953;53.110;5.592;2023-06-10T07:13:22;7.93;;;4.47;;
62861;SDS011;48953;53.110;5.592;2023-06-10T07:15:48;7.65;;;4.20;;
62861;SDS011;48953;53.110;5.592;2023-06-10T07:18:14;6.90;;;4.20;;
62861;SDS011;48953;53.110;5.592;2023-06-10T07:20:44;7.00;;;4.28;;
62861;SDS011;48953;53.110;5.592;2023-06-10T07:23:10;6.10;;;3.75;;
62861;SDS011;48953;53.110;5.592;2023-06-10T07:25:36;6.65;;;3.80;;
62861;SDS011;48953;53.110;5.592;2023-06-10T07:28:02;5.68;;;4.22;;
62861;SDS011;48953;53.110;5.592;2023-06-10T07:30:28;7.05;;;4.32;;
62861;SDS011;48953;53.110;5.592;2023-06-10T07:32:54;5.50;;;4.20;;
62861;SDS011;48953;53.110;5.592;2023-06-10T07:35:20;5.50;;;4.07;;
62861;SDS011;48953;53.110;5.592;2023-06-10T07:37:46;6.15;;;4.35;;
62861;SDS011;48953;53.110;5.592;2023-06-10T07:40:12;6.40;;;4.78;;
62861;SDS011;48953;53.110;5.592;2023-06-10T07:42:38;7.85;;;4.63;;
62861;SDS011;48953;53.110;5.592;2023-06-10T07:45:04;7.47;;;4.50;;
62861;SDS011;48953;53.110;5.592;2023-06-10T07:47:32;8.27;;;4.60;;
62861;SDS011;48953;53.110;5.592;2023-06-10T07:49:58;8.35;;;4.82;;
62861;SDS011;48953;53.110;5.592;2023-06-10T07:52:24;7.05;;;4.50;;
62861;SDS011;48953;53.110;5.592;2023-06-10T07:54:51;7.88;;;4.57;;
62861;SDS011;48953;53.110;5.592;2023-06-10T07:57:17;7.15;;;4.68;;
62861;SDS011;48953;53.110;5.592;2023-06-10T07:59:43;8.55;;;4.78;;
62861;SDS011;48953;53.110;5.592;2023-06-10T08:02:09;5.63;;;3.85;;
62861;SDS011;48953;53.110;5.592;2023-06-10T08:04:35;6.45;;;4.45;;
62861;SDS011;48953;53.110;5.592;2023-06-10T08:07:01;6.82;;;4.20;;
62861;SDS011;48953;53.110;5.592;2023-06-10T08:09:28;6.90;;;4.05;;
62861;SDS011;48953;53.110;5.592;2023-06-10T08:11:54;6.47;;;4.13;;
62861;SDS011;48953;53.110;5.592;2023-06-10T08:14:20;5.60;;;4.43;;
62861;SDS011;48953;53.110;5.592;2023-06-10T08:16:47;6.03;;;3.85;;
62861;SDS011;48953;53.110;5.592;2023-06-10T08:19:12;6.85;;;4.50;;
62861;SDS011;48953;53.110;5.592;2023-06-10T08:21:38;7.18;;;4.75;;
62861;SDS011;48953;53.110;5.592;2023-06-10T08:24:08;8.07;;;4.35;;
62861;SDS011;48953;53.110;5.592;2023-06-10T08:26:34;7.03;;;4.30;;
62861;SDS011;48953;53.110;5.592;2023-06-10T08:29:00;6.82;;;4.45;;
62861;SDS011;48953;53.110;5.592;2023-06-10T08:31:26;6.80;;;4.47;;
62861;SDS011;48953;53.110;5.592;2023-06-10T08:33:52;7.68;;;4.20;;
62861;SDS011;48953;53.110;5.592;2023-06-10T08:36:18;7.40;;;4.10;;
62861;SDS011;48953;53.110;5.592;2023-06-10T08:38:44;6.30;;;4.20;;
62861;SDS011;48953;53.110;5.592;2023-06-10T08:41:11;7.22;;;4.45;;
62861;SDS011;48953;53.110;5.592;2023-06-10T08:43:42;5.53;;;4.30;;
62861;SDS011;48953;53.110;5.592;2023-06-10T08:46:09;6.30;;;4.30;;
62861;SDS011;48953;53.110;5.592;2023-06-10T08:48:38;8.07;;;4.15;;
62861;SDS011;48953;53.110;5.592;2023-06-10T08:51:05;6.65;;;4.30;;
62861;SDS011;48953;53.110;5.592;2023-06-10T08:53:31;6.38;;;4.30;;
62861;SDS011;48953;53.110;5.592;2023-06-10T08:56:00;6.73;;;4.60;;
62861;SDS011;48953;53.110;5.592;2023-06-10T08:58:26;6.00;;;4.80;;
62861;SDS011;48953;53.110;5.592;2023-06-10T09:00:52;6.93;;;4.40;;
62861;SDS011;48953;53.110;5.592;2023-06-10T09:03:18;7.65;;;4.70;;
62861;SDS011;48953;53.110;5.592;2023-06-10T09:05:45;6.03;;;4.10;;
62861;SDS011;48953;53.110;5.592;2023-06-10T09:08:11;6.75;;;5.20;;
62861;SDS011;48953;53.110;5.592;2023-06-10T09:10:37;6.28;;;4.47;;
62861;SDS011;48953;53.110;5.592;2023-06-10T09:13:03;6.03;;;4.38;;
62861;SDS011;48953;53.110;5.592;2023-06-10T09:15:29;60.22;;;11.93;;
62861;SDS011;48953;53.110;5.592;2023-06-10T09:17:55;5.15;;;3.92;;
62861;SDS011;48953;53.110;5.592;2023-06-10T09:20:23;7.20;;;4.68;;
62861;SDS011;48953;53.110;5.592;2023-06-10T09:22:49;10.48;;;5.13;;
62861;SDS011;48953;53.110;5.592;2023-06-10T09:25:15;4.78;;;4.18;;
62861;SDS011;48953;53.110;5.592;2023-06-10T09:27:47;5.72;;;4.32;;
62861;SDS011;48953;53.110;5.592;2023-06-10T09:32:54;4.60;;;3.33;;
62861;SDS011;48953;53.110;5.592;2023-06-10T09:35:23;6.03;;;4.30;;
62861;SDS011;48953;53.110;5.592;2023-06-10T09:37:51;7.10;;;3.92;;
62861;SDS011;48953;53.110;5.592;2023-06-10T09:40:17;6.43;;;3.92;;
62861;SDS011;48953;53.110;5.592;2023-06-10T09:42:43;4.97;;;3.90;;
62861;SDS011;48953;53.110;5.592;2023-06-10T09:45:09;8.15;;;4.07;;
62861;SDS011;48953;53.110;5.592;2023-06-10T09:47:35;6.65;;;3.67;;
62861;SDS011;48953;53.110;5.592;2023-06-10T09:50:03;4.80;;;3.60;;
62861;SDS011;48953;53.110;5.592;2023-06-10T09:52:29;4.28;;;3.88;;
62861;SDS011;48953;53.110;5.592;2023-06-10T09:55:01;4.85;;;3.30;;
62861;SDS011;48953;53.110;5.592;2023-06-10T09:57:31;4.05;;;3.22;;
62861;SDS011;48953;53.110;5.592;2023-06-10T10:00:07;6.25;;;3.42;;
62861;SDS011;48953;53.110;5.592;2023-06-10T10:02:43;5.63;;;3.25;;
62861;SDS011;48953;53.110;5.592;2023-06-10T10:05:10;4.78;;;3.30;;
62861;SDS011;48953;53.110;5.592;2023-06-10T10:07:38;6.65;;;3.78;;
62861;SDS011;48953;53.110;5.592;2023-06-10T10:10:04;4.57;;;3.55;;
62861;SDS011;48953;53.110;5.592;2023-06-10T10:12:31;5.38;;;2.75;;
62861;SDS011;48953;53.110;5.592;2023-06-10T10:14:57;7.10;;;3.58;;
62861;SDS011;48953;53.110;5.592;2023-06-10T10:17:24;5.07;;;3.60;;
62861;SDS011;48953;53.110;5.592;2023-06-10T10:19:51;5.13;;;3.80;;
62861;SDS011;48953;53.110;5.592;2023-06-10T10:22:20;5.33;;;3.67;;
62861;SDS011;48953;53.110;5.592;2023-06-10T10:24:50;4.65;;;3.47;;
62861;SDS011;48953;53.110;5.592;2023-06-10T10:27:17;4.20;;;3.50;;
62861;SDS011;48953;53.110;5.592;2023-06-10T10:29:46;3.80;;;3.33;;
62861;SDS011;48953;53.110;5.592;2023-06-10T10:32:13;6.47;;;3.50;;
62861;SDS011;48953;53.110;5.592;2023-06-10T10:34:49;4.18;;;3.45;;
62861;SDS011;48953;53.110;5.592;2023-06-10T10:37:17;3.65;;;3.00;;
62861;SDS011;48953;53.110;5.592;2023-06-10T10:39:44;3.85;;;3.08;;
62861;SDS011;48953;53.110;5.592;2023-06-10T10:42:10;4.05;;;3.20;;
62861;SDS011;48953;53.110;5.592;2023-06-10T10:44:39;4.57;;;3.47;;
62861;SDS011;48953;53.110;5.592;2023-06-10T10:47:07;4.28;;;2.78;;
62861;SDS011;48953;53.110;5.592;2023-06-10T10:49:35;3.38;;;3.00;;
62861;SDS011;48953;53.110;5.592;2023-06-10T10:52:01;5.43;;;3.00;;
62861;SDS011;48953;53.110;5.592;2023-06-10T10:54:35;5.68;;;3.20;;
62861;SDS011;48953;53.110;5.592;2023-06-10T10:57:18;5.53;;;2.63;;
62861;SDS011;48953;53.110;5.592;2023-06-10T11:02:10;4.13;;;3.40;;
62861;SDS011;48953;53.110;5.592;2023-06-10T11:04:36;4.10;;;3.05;;
62861;SDS011;48953;53.110;5.592;2023-06-10T11:07:05;5.05;;;3.22;;
62861;SDS011;48953;53.110;5.592;2023-06-10T11:09:32;4.38;;;3.20;;
62861;SDS011;48953;53.110;5.592;2023-06-10T11:11:58;4.70;;;3.25;;
62861;SDS011;48953;53.110;5.592;2023-06-10T11:14:28;4.07;;;3.05;;
62861;SDS011;48953;53.110;5.592;2023-06-10T11:16:58;3.72;;;2.95;;
62861;SDS011;48953;53.110;5.592;2023-06-10T11:19:34;3.50;;;2.65;;
62861;SDS011;48953;53.110;5.592;2023-06-10T11:22:01;4.63;;;3.30;;
62861;SDS011;48953;53.110;5.592;2023-06-10T11:24:28;5.25;;;2.95;;
62861;SDS011;48953;53.110;5.592;2023-06-10T11:26:54;4.18;;;3.05;;
62861;SDS011;48953;53.110;5.592;2023-06-10T11:29:20;3.78;;;3.10;;
62861;SDS011;48953;53.110;5.592;2023-06-10T11:31:50;5.07;;;3.10;;
62861;SDS011;48953;53.110;5.592;2023-06-10T11:34:23;17.27;;;5.28;;
62861;SDS011;48953;53.110;5.592;2023-06-10T11:36:49;10.02;;;4.78;;
62861;SDS011;48953;53.110;5.592;2023-06-10T11:39:16;28.27;;;6.78;;
62861;SDS011;48953;53.110;5.592;2023-06-10T11:41:43;6.50;;;3.22;;
62861;SDS011;48953;53.110;5.592;2023-06-10T11:44:12;8.68;;;4.28;;
62861;SDS011;48953;53.110;5.592;2023-06-10T11:46:39;18.95;;;5.78;;
62861;SDS011;48953;53.110;5.592;2023-06-10T11:49:05;5.20;;;3.50;;
62861;SDS011;48953;53.110;5.592;2023-06-10T11:51:35;5.13;;;2.42;;
62861;SDS011;48953;53.110;5.592;2023-06-10T11:54:01;2.88;;;2.47;;
62861;SDS011;48953;53.110;5.592;2023-06-10T11:56:34;3.53;;;3.22;;
62861;SDS011;48953;53.110;5.592;2023-06-10T11:59:04;3.55;;;2.85;;
62861;SDS011;48953;53.110;5.592;2023-06-10T12:01:32;3.20;;;2.35;;
62861;SDS011;48953;53.110;5.592;2023-06-10T12:06:24;4.30;;;2.78;;
62861;SDS011;48953;53.110;5.592;2023-06-10T12:08:50;3.67;;;3.00;;
62861;SDS011;48953;53.110;5.592;2023-06-10T12:11:16;3.75;;;2.90;;
62861;SDS011;48953;53.110;5.592;2023-06-10T12:13:46;3.65;;;2.38;;
62861;SDS011;48953;53.110;5.592;2023-06-10T12:16:16;3.58;;;2.40;;
62861;SDS011;48953;53.110;5.592;2023-06-10T12:18:45;3.58;;;2.70;;
62861;SDS011;48953;53.110;5.592;2023-06-10T12:21:23;9.15;;;3.25;;
62861;SDS011;48953;53.110;5.592;2023-06-10T12:24:02;10.68;;;4.07;;
62861;SDS011;48953;53.110;5.592;2023-06-10T12:26:42;11.60;;;3.65;;
62861;SDS011;48953;53.110;5.592;2023-06-10T12:29:14;2.28;;;2.00;;
62861;SDS011;48953;53.110;5.592;2023-06-10T12:31:54;4.07;;;2.80;;
62861;SDS011;48953;53.110;5.592;2023-06-10T12:36:48;4.65;;;2.70;;
62861;SDS011;48953;53.110;5.592;2023-06-10T12:39:14;4.75;;;2.45;;
62861;SDS011;48953;53.110;5.592;2023-06-10T12:41:46;4.70;;;2.97;;
62861;SDS011;48953;53.110;5.592;2023-06-10T12:44:13;3.65;;;2.22;;
62861;SDS011;48953;53.110;5.592;2023-06-10T12:46:39;5.40;;;2.55;;
62861;SDS011;48953;53.110;5.592;2023-06-10T12:49:05;3.65;;;2.50;;
62861;SDS011;48953;53.110;5.592;2023-06-10T12:51:31;4.25;;;2.33;;
62861;SDS011;48953;53.110;5.592;2023-06-10T12:53:59;3.58;;;2.17;;
62861;SDS011;48953;53.110;5.592;2023-06-10T12:56:25;4.90;;;2.30;;
62861;SDS011;48953;53.110;5.592;2023-06-10T12:58:51;3.63;;;2.70;;
62861;SDS011;48953;53.110;5.592;2023-06-10T13:01:17;7.03;;;4.25;;
62861;SDS011;48953;53.110;5.592;2023-06-10T13:03:43;8.43;;;4.72;;
62861;SDS011;48953;53.110;5.592;2023-06-10T13:06:09;8.35;;;4.63;;
62861;SDS011;48953;53.110;5.592;2023-06-10T13:08:35;9.48;;;4.05;;
62861;SDS011;48953;53.110;5.592;2023-06-10T13:11:01;6.70;;;3.63;;
62861;SDS011;48953;53.110;5.592;2023-06-10T13:13:27;5.72;;;4.10;;
62861;SDS011;48953;53.110;5.592;2023-06-10T13:15:53;7.38;;;4.40;;
62861;SDS011;48953;53.110;5.592;2023-06-10T13:18:19;6.40;;;4.50;;
62861;SDS011;48953;53.110;5.592;2023-06-10T13:20:45;8.70;;;5.55;;
62861;SDS011;48953;53.110;5.592;2023-06-10T13:23:11;9.88;;;4.05;;
62861;SDS011;48953;53.110;5.592;2023-06-10T13:25:38;10.07;;;5.68;;
62861;SDS011;48953;53.110;5.592;2023-06-10T13:28:05;9.52;;;4.47;;
62861;SDS011;48953;53.110;5.592;2023-06-10T13:30:32;11.68;;;5.70;;
62861;SDS011;48953;53.110;5.592;2023-06-10T13:32:58;6.38;;;4.93;;
62861;SDS011;48953;53.110;5.592;2023-06-10T13:35:24;10.82;;;5.10;;
62861;SDS011;48953;53.110;5.592;2023-06-10T13:37:50;9.90;;;4.57;;
62861;SDS011;48953;53.110;5.592;2023-06-10T13:40:16;8.52;;;5.28;;
62861;SDS011;48953;53.110;5.592;2023-06-10T13:42:44;12.57;;;5.07;;
62861;SDS011;48953;53.110;5.592;2023-06-10T13:45:15;7.45;;;4.90;;
62861;SDS011;48953;53.110;5.592;2023-06-10T13:47:42;8.90;;;4.70;;
62861;SDS011;48953;53.110;5.592;2023-06-10T13:50:08;9.45;;;5.40;;
62861;SDS011;48953;53.110;5.592;2023-06-10T13:52:34;10.73;;;5.25;;
62861;SDS011;48953;53.110;5.592;2023-06-10T13:55:00;7.63;;;5.40;;
62861;SDS011;48953;53.110;5.592;2023-06-10T13:57:26;9.55;;;5.20;;
62861;SDS011;48953;53.110;5.592;2023-06-10T13:59:52;7.25;;;4.13;;
62861;SDS011;48953;53.110;5.592;2023-06-10T14:02:18;12.35;;;5.93;;
62861;SDS011;48953;53.110;5.592;2023-06-10T14:04:44;8.75;;;4.75;;
62861;SDS011;48953;53.110;5.592;2023-06-10T14:07:10;7.28;;;5.00;;
62861;SDS011;48953;53.110;5.592;2023-06-10T14:09:36;10.30;;;5.45;;
62861;SDS011;48953;53.110;5.592;2023-06-10T14:12:02;6.97;;;5.30;;
62861;SDS011;48953;53.110;5.592;2023-06-10T14:14:28;9.05;;;4.95;;
62861;SDS011;48953;53.110;5.592;2023-06-10T14:16:55;9.73;;;4.63;;
62861;SDS011;48953;53.110;5.592;2023-06-10T14:19:21;6.45;;;4.28;;
62861;SDS011;48953;53.110;5.592;2023-06-10T14:21:47;9.95;;;4.55;;
62861;SDS011;48953;53.110;5.592;2023-06-10T14:24:14;10.63;;;5.35;;
62861;SDS011;48953;53.110;5.592;2023-06-10T14:26:40;7.25;;;4.57;;
62861;SDS011;48953;53.110;5.592;2023-06-10T14:29:06;7.63;;;4.32;;
62861;SDS011;48953;53.110;5.592;2023-06-10T14:31:33;8.45;;;4.22;;
62861;SDS011;48953;53.110;5.592;2023-06-10T14:33:59;8.10;;;4.63;;
62861;SDS011;48953;53.110;5.592;2023-06-10T14:36:25;11.40;;;4.47;;
62861;SDS011;48953;53.110;5.592;2023-06-10T14:38:51;8.13;;;4.57;;
62861;SDS011;48953;53.110;5.592;2023-06-10T14:41:18;9.40;;;4.85;;
62861;SDS011;48953;53.110;5.592;2023-06-10T14:43:44;9.23;;;4.80;;
62861;SDS011;48953;53.110;5.592;2023-06-10T14:46:10;8.27;;;4.18;;
62861;SDS011;48953;53.110;5.592;2023-06-10T14:48:36;8.98;;;4.45;;
62861;SDS011;48953;53.110;5.592;2023-06-10T14:51:02;5.85;;;3.85;;
62861;SDS011;48953;53.110;5.592;2023-06-10T14:53:28;9.65;;;4.50;;
62861;SDS011;48953;53.110;5.592;2023-06-10T14:55:54;8.20;;;4.63;;